Time;durP1;ratioP1;P1;durP2;ratioP2;P2;SDS_P1;SDS_P2;PMS_P1;PMS_P2;Temp;Humidity;BMP_temperature;BMP_pressure;BME280_temperature;BME280_humidity;BME280_pressure;Samples;Min_cycle;Max_cycle;Signal;HPM_P1;HPM_P2
2021/11/25 00:02:58;;;;;;;0.20;0.10;;;9.00;99.90;;;;;;21147821;28;20585;-72
2021/11/25 00:13:02;;;;;;;0.20;0.10;;;9.00;99.90;;;;;;21150302;28;20249;-73
2021/11/25 00:23:07;;;;;;;0.20;0.10;;;8.90;99.90;;;;;;21145462;28;20218;-75
2021/11/25 00:33:11;;;;;;;0.20;0.10;;;8.70;99.90;;;;;;21150702;28;20229;-74
2021/11/25 00:43:17;;;;;;;0.20;0.00;;;9.00;99.90;;;;;;21165918;28;20706;-72
2021/11/25 00:53:21;;;;;;;0.20;0.10;;;9.20;99.90;;;;;;21164879;28;20771;-71
2021/11/25 01:03:25;;;;;;;0.20;0.10;;;9.20;99.90;;;;;;21167047;28;20219;-71
2021/11/25 01:13:29;;;;;;;0.20;0.10;;;9.40;99.90;;;;;;21212041;27;20226;-72
2021/11/25 01:23:34;;;;;;;0.20;0.10;;;9.00;99.90;;;;;;21248359;27;20242;-72
2021/11/25 01:33:38;;;;;;;0.20;0.10;;;8.60;99.90;;;;;;21222934;27;20314;-71
2021/11/25 01:43:42;;;;;;;0.20;0.10;;;8.50;99.90;;;;;;21160620;28;20283;-72
2021/11/25 01:53:47;;;;;;;0.20;0.10;;;8.50;99.90;;;;;;21158925;28;20227;-72
2021/11/25 02:03:54;;;;;;;0.20;0.10;;;8.40;99.90;;;;;;21159338;28;20196;-72
2021/11/25 02:13:58;;;;;;;0.20;0.10;;;8.20;99.90;;;;;;21204416;27;20218;-71
2021/11/25 02:24:03;;;;;;;0.20;0.10;;;8.40;99.90;;;;;;21240830;27;20305;-71
2021/11/25 02:34:06;;;;;;;0.20;0.10;;;9.00;99.90;;;;;;21212642;27;20233;-71
2021/11/25 02:44:12;;;;;;;0.20;0.10;;;9.50;99.90;;;;;;21155193;28;20661;-72
2021/11/25 02:54:15;;;;;;;0.20;0.10;;;10.30;99.90;;;;;;21156387;28;20276;-73
2021/11/25 03:04:21;;;;;;;0.20;0.10;;;10.50;99.90;;;;;;21037817;22;20694;-72
2021/11/25 03:14:24;;;;;;;0.20;0.10;;;10.60;99.90;;;;;;20901815;28;20252;-73
2021/11/25 03:24:29;;;;;;;0.20;0.10;;;11.00;99.90;;;;;;20901323;28;20224;-73
2021/11/25 03:34:33;;;;;;;0.20;0.10;;;11.10;99.90;;;;;;20898398;28;20231;-72
2021/11/25 03:44:40;;;;;;;0.20;0.10;;;11.00;99.90;;;;;;20900767;28;20194;-71
2021/11/25 03:54:43;;;;;;;0.20;0.10;;;10.80;99.90;;;;;;20899875;28;20225;-75
2021/11/25 04:04:49;;;;;;;0.20;0.10;;;10.80;99.90;;;;;;20821417;22;20262;-73
2021/11/25 04:14:52;;;;;;;0.20;0.10;;;10.80;99.90;;;;;;20748479;28;20296;-73
2021/11/25 04:24:58;;;;;;;0.20;0.10;;;10.90;99.90;;;;;;20750752;28;20218;-75
2021/11/25 04:45:25;;;;;;;0.20;0.10;;;11.10;99.90;;;;;;20668608;28;20312;-74
2021/11/25 04:55:30;;;;;;;0.20;0.10;;;11.10;99.90;;;;;;20668490;28;20230;-71
2021/11/25 05:05:36;;;;;;;0.20;0.10;;;11.10;99.90;;;;;;20668055;28;20554;-71
2021/11/25 05:15:39;;;;;;;0.20;0.10;;;11.50;99.90;;;;;;20722635;28;20687;-71
2021/11/25 05:25:44;;;;;;;0.20;0.10;;;11.30;99.90;;;;;;20745361;28;20226;-72
2021/11/25 05:35:48;;;;;;;0.20;0.10;;;11.70;99.90;;;;;;20742837;28;20333;-70
2021/11/25 05:45:54;;;;;;;0.20;0.10;;;11.80;99.90;;;;;;20744738;28;20195;-70
2021/11/25 05:55:58;;;;;;;0.20;0.10;;;11.80;99.90;;;;;;20741580;28;20226;-71
2021/11/25 06:06:04;;;;;;;0.20;0.10;;;12.00;99.90;;;;;;20743593;28;20313;-73
2021/11/25 06:16:08;;;;;;;0.20;0.10;;;11.50;99.90;;;;;;20741586;28;20767;-73
2021/11/25 06:26:13;;;;;;;0.43;0.43;;;11.10;99.90;;;;;;20741497;28;20566;-73
2021/11/25 06:36:16;;;;;;;0.20;0.00;;;10.80;99.90;;;;;;20693346;28;20231;-73
2021/11/25 06:46:21;;;;;;;0.20;0.10;;;10.80;99.90;;;;;;20655601;28;20238;-73
2021/11/25 06:56:25;;;;;;;1.80;1.70;;;10.80;99.90;;;;;;20657049;28;20254;-71
2021/11/25 07:06:30;;;;;;;0.20;0.10;;;10.70;99.90;;;;;;20651137;28;20251;-72
2021/11/25 07:16:34;;;;;;;0.20;0.10;;;10.70;99.90;;;;;;20718821;28;20233;-67
2021/11/25 07:26:39;;;;;;;0.20;0.10;;;10.80;99.90;;;;;;20736354;28;20278;-72
2021/11/25 07:36:43;;;;;;;0.20;0.10;;;10.70;99.90;;;;;;20732458;28;20234;-72
2021/11/25 07:46:48;;;;;;;0.20;0.10;;;10.80;99.90;;;;;;20735730;28;20633;-72
2021/11/25 07:56:51;;;;;;;0.20;0.10;;;10.80;99.90;;;;;;20736138;28;20230;-72
2021/11/25 08:06:57;;;;;;;0.20;0.10;;;11.10;99.90;;;;;;20733929;28;20676;-71
2021/11/25 08:17:01;;;;;;;0.20;0.10;;;11.30;99.90;;;;;;20731526;28;20292;-70
2021/11/25 08:27:06;;;;;;;0.20;0.10;;;11.30;99.90;;;;;;20732860;28;20294;-72
2021/11/25 08:37:10;;;;;;;0.20;0.10;;;11.20;99.90;;;;;;20731689;28;20230;-71
2021/11/25 08:47:15;;;;;;;0.20;0.10;;;11.00;99.90;;;;;;20733543;28;20210;-73
2021/11/25 08:57:20;;;;;;;0.20;0.10;;;11.00;99.90;;;;;;20737461;28;20273;-74
2021/11/25 09:07:26;;;;;;;0.20;0.10;;;10.80;99.90;;;;;;20730825;28;20313;-70
2021/11/25 09:17:29;;;;;;;0.20;0.00;;;10.90;99.90;;;;;;20744655;28;20227;-71
2021/11/25 09:27:55;;;;;;;0.20;0.10;;;11.30;99.90;;;;;;20745113;28;20551;-71
2021/11/25 09:38:00;;;;;;;0.20;0.10;;;11.70;99.90;;;;;;20739955;28;20742;-69
2021/11/25 09:48:08;;;;;;;0.20;0.10;;;11.60;99.90;;;;;;20704927;28;20203;-69
2021/11/25 10:09:38;;;;;;;0.20;0.10;;;12.40;99.90;;;;;;20681055;28;20222;-69
2021/11/25 10:19:41;;;;;;;0.20;0.10;;;12.90;99.90;;;;;;20739268;28;20555;-71
2021/11/25 10:29:51;;;;;;;0.20;0.10;;;13.30;99.90;;;;;;20735259;28;20226;-71
2021/11/25 10:40:14;;;;;;;0.20;0.10;;;14.30;99.90;;;;;;20736900;28;20259;-71
2021/11/25 10:50:22;;;;;;;0.20;0.00;;;14.90;99.90;;;;;;20736053;28;20548;-70
2021/11/25 11:00:32;;;;;;;0.20;0.00;;;15.00;99.90;;;;;;20737268;28;20652;-70
2021/11/25 11:10:38;;;;;;;0.20;0.10;;;14.20;99.90;;;;;;20736684;28;20709;-70
2021/11/25 11:20:47;;;;;;;0.20;0.00;;;14.60;99.90;;;;;;20734547;28;20191;-70
2021/11/25 11:30:53;;;;;;;0.20;0.00;;;14.50;99.90;;;;;;20734324;28;20700;-70
2021/11/25 11:40:58;;;;;;;0.20;0.10;;;14.50;99.90;;;;;;20734312;28;20191;-70
2021/11/25 11:51:12;;;;;;;0.20;0.10;;;14.00;99.90;;;;;;20733714;28;20235;-71
2021/11/25 12:01:23;;;;;;;0.20;0.07;;;13.90;99.90;;;;;;20733406;28;20704;-70
2021/11/25 12:11:40;;;;;;;0.20;0.10;;;14.10;99.90;;;;;;20733010;28;20546;-71
2021/11/25 12:21:46;;;;;;;0.20;0.10;;;14.00;99.90;;;;;;20731996;28;20195;-70
2021/11/25 12:31:53;;;;;;;0.20;0.10;;;13.90;99.90;;;;;;20736248;28;20234;-71
2021/11/25 12:41:57;;;;;;;0.20;0.10;;;13.90;99.90;;;;;;20746209;28;20261;-71
2021/11/25 12:52:02;;;;;;;0.20;0.10;;;13.70;99.90;;;;;;20746826;28;20219;-71
2021/11/25 13:02:06;;;;;;;0.20;0.10;;;13.90;99.90;;;;;;20762980;28;20313;-72
2021/11/25 13:12:12;;;;;;;0.20;0.10;;;13.70;99.90;;;;;;20745341;28;20231;-71
2021/11/25 13:22:17;;;;;;;0.20;0.10;;;13.80;99.90;;;;;;20743028;28;20732;-71
2021/11/25 13:32:24;;;;;;;0.20;0.00;;;13.80;99.90;;;;;;20738947;28;20318;-72
2021/11/25 13:42:30;;;;;;;0.20;0.10;;;13.70;99.90;;;;;;20740082;28;20624;-70
2021/11/25 13:52:37;;;;;;;0.20;0.10;;;13.80;99.90;;;;;;20741955;28;20237;-71
2021/11/25 14:02:43;;;;;;;0.20;0.00;;;13.70;99.90;;;;;;20740588;28;20231;-70
2021/11/25 14:12:50;;;;;;;0.30;0.30;;;14.00;99.90;;;;;;20706166;28;20566;-70
2021/11/25 14:22:55;;;;;;;0.20;0.10;;;14.50;99.90;;;;;;20658449;28;20290;-69
2021/11/25 14:33:04;;;;;;;0.20;0.03;;;14.70;99.90;;;;;;20674677;28;20305;-70
2021/11/25 14:43:09;;;;;;;0.20;0.10;;;14.50;99.90;;;;;;20737767;28;20636;-69
2021/11/25 14:53:18;;;;;;;0.20;0.10;;;15.00;99.90;;;;;;20736337;28;20294;-68
2021/11/25 15:03:21;;;;;;;0.20;0.10;;;14.80;99.90;;;;;;20736552;28;20292;-69
2021/11/25 15:13:28;;;;;;;0.20;0.10;;;14.40;99.90;;;;;;20735260;28;20304;-69
2021/11/25 15:23:34;;;;;;;0.20;0.10;;;14.80;99.90;;;;;;20732921;28;20201;-68
2021/11/25 15:33:41;;;;;;;0.20;0.10;;;15.10;99.90;;;;;;20734081;28;20226;-69
2021/11/25 15:43:46;;;;;;;0.20;0.10;;;14.90;99.90;;;;;;20733027;28;20778;-68
2021/11/25 15:53:51;;;;;;;0.20;0.10;;;14.40;99.90;;;;;;20732900;28;20269;-68
2021/11/25 16:04:19;;;;;;;0.20;0.10;;;13.70;99.90;;;;;;20734375;28;20254;-68
2021/11/25 16:14:30;;;;;;;0.20;0.10;;;13.60;99.90;;;;;;20739818;28;20265;-71
2021/11/25 16:24:34;;;;;;;0.20;0.10;;;12.90;99.90;;;;;;20747667;28;20191;-72
2021/11/25 16:34:40;;;;;;;0.20;0.10;;;12.40;99.90;;;;;;20747183;28;20588;-71
2021/11/25 16:44:44;;;;;;;0.20;0.10;;;12.00;99.90;;;;;;20756297;28;20194;-73
2021/11/25 16:54:50;;;;;;;0.20;0.10;;;11.60;99.90;;;;;;20747124;28;20225;-72
2021/11/25 17:04:54;;;;;;;0.20;0.10;;;11.40;99.90;;;;;;20746396;28;20229;-75
2021/11/25 17:14:59;;;;;;;0.20;0.10;;;11.40;99.90;;;;;;20897706;22;20325;-74
2021/11/25 17:25:03;;;;;;;0.20;0.00;;;11.30;99.90;;;;;;20826373;28;20198;-74
2021/11/25 17:35:10;;;;;;;0.20;0.10;;;11.10;99.90;;;;;;20824315;28;20679;-72
2021/11/25 17:45:14;;;;;;;0.20;0.10;;;10.90;99.90;;;;;;20838916;28;20207;-70
2021/11/25 17:55:19;;;;;;;0.20;0.10;;;10.80;99.90;;;;;;20821076;28;20257;-72
2021/11/25 18:05:24;;;;;;;0.20;0.10;;;10.70;99.90;;;;;;20822259;28;20232;-71
2021/11/25 18:16:00;;;;;;;0.30;0.30;;;10.80;99.90;;;;;;20823297;28;20226;-73
2021/11/25 18:26:13;;;;;;;0.20;0.10;;;10.80;99.90;;;;;;20823582;28;20206;-73
2021/11/25 18:36:20;;;;;;;0.20;0.10;;;10.80;99.90;;;;;;20819510;28;20233;-72
2021/11/25 18:46:24;;;;;;;0.20;0.10;;;10.80;99.90;;;;;;20818376;28;20244;-71
2021/11/25 18:56:32;;;;;;;0.20;0.10;;;10.90;99.90;;;;;;20820036;28;20257;-73
2021/11/25 19:06:36;;;;;;;0.20;0.07;;;10.90;99.90;;;;;;20818143;28;20194;-75
2021/11/25 19:16:46;;;;;;;0.20;0.10;;;10.70;99.90;;;;;;20816170;28;20238;-75
2021/11/25 19:26:50;;;;;;;0.20;0.10;;;10.90;99.90;;;;;;20818442;28;20202;-74
2021/11/25 19:36:55;;;;;;;0.20;0.10;;;10.90;99.90;;;;;;20818048;28;20221;-75
2021/11/25 19:46:58;;;;;;;0.20;0.10;;;10.80;99.90;;;;;;20818406;28;20194;-74
2021/11/25 19:57:04;;;;;;;0.20;0.10;;;10.70;99.90;;;;;;20815219;28;20226;-75
2021/11/25 20:07:08;;;;;;;0.20;0.10;;;10.80;99.90;;;;;;20812654;28;20289;-73
2021/11/25 20:17:13;;;;;;;0.20;0.10;;;10.80;99.90;;;;;;20745837;28;20427;-71
2021/11/25 20:27:17;;;;;;;0.20;0.10;;;10.80;99.90;;;;;;20730645;28;20257;-71
2021/11/25 20:37:22;;;;;;;0.20;0.10;;;10.60;99.90;;;;;;20700389;28;20305;-73
2021/11/25 20:47:25;;;;;;;0.20;0.10;;;10.40;99.90;;;;;;20731866;28;20209;-71
2021/11/25 20:57:45;;;;;;;0.20;0.10;;;10.20;99.90;;;;;;20739285;28;20230;-71
2021/11/25 21:07:49;;;;;;;0.20;0.10;;;10.30;99.90;;;;;;20758812;28;20231;-75
2021/11/25 21:17:58;;;;;;;0.20;0.10;;;10.10;99.90;;;;;;20728367;28;20241;-76
2021/11/25 21:28:09;;;;;;;0.20;0.10;;;10.20;99.90;;;;;;20691348;28;20625;-76
2021/11/25 21:38:14;;;;;;;0.20;0.10;;;10.20;99.90;;;;;;20718794;28;20227;-77
2021/11/25 21:48:18;;;;;;;0.20;0.10;;;10.20;99.90;;;;;;20713125;28;20195;-76
2021/11/25 21:58:25;;;;;;;0.20;0.10;;;10.10;99.90;;;;;;20696037;28;20260;-76
2021/11/25 22:08:29;;;;;;;0.20;0.10;;;10.00;99.90;;;;;;20687525;28;20549;-74
2021/11/25 22:18:36;;;;;;;0.20;0.10;;;9.80;99.90;;;;;;20687915;28;20226;-76
2021/11/25 22:28:44;;;;;;;0.20;0.10;;;9.80;99.90;;;;;;21587413;22;20266;-76
2021/11/25 22:38:50;;;;;;;0.20;0.10;;;9.60;99.90;;;;;;20671706;28;20231;-77
2021/11/25 22:48:54;;;;;;;0.20;0.10;;;9.60;99.90;;;;;;20704251;28;20314;-77
2021/11/25 22:58:59;;;;;;;0.20;0.10;;;9.50;99.90;;;;;;20733553;28;20258;-75
2021/11/25 23:09:03;;;;;;;0.20;0.10;;;9.50;99.90;;;;;;20738964;28;20197;-72
2021/11/25 23:19:08;;;;;;;0.20;0.10;;;9.50;99.90;;;;;;20737537;28;20253;-72
2021/11/25 23:29:11;;;;;;;0.20;0.10;;;9.60;99.90;;;;;;20737957;28;20258;-71
2021/11/25 23:39:18;;;;;;;0.20;0.10;;;9.60;99.90;;;;;;20696628;28;20237;-71
2021/11/25 23:49:23;;;;;;;0.20;0.10;;;9.50;99.90;;;;;;20670676;28;20640;-71
2021/11/25 23:59:28;;;;;;;0.20;0.10;;;9.50;99.90;;;;;;20653929;28;20310;-71
